Meteorología y climatología de Navarra
Datos de la estación - Meteo Navarra

Estación de Pamplona GN

Altitud 455 m.


Datos desde el 12/09/2019 hasta el 13/09/2019 en horario solar
Los datos son PROVISIONALES

Anterior Página 1 de 1 Siguiente Descargar: Formato para Excel 2000 o superior   Formato csv   Formato para OpenOffice Calc
Fecha Temperatura Humedad relativa Radiación global Insolación Precipitación Vel. viento 10 m Vel. viento 10 m Dir. viento 10 m
ºC % W/m² s l/m² m/s km/h º
12/09/2019 0:00 13.9 71 0.0 0 0.0 1.2 4.2 301
12/09/2019 0:10 14.0 71 0.0 0 0.0 1.0 3.4 302
12/09/2019 0:20 13.9 71 0.0 0 0.0 0.7 2.7 315
12/09/2019 0:30 13.9 71 0.0 0 0.0 0.7 2.5 312
12/09/2019 0:40 13.8 71 0.0 0 0.0 0.1 0.5 337
12/09/2019 0:50 13.7 71 0.0 0 0.0 0.2 0.7 318
12/09/2019 1:00 13.6 72 0.0 0 0.0 0.4 1.3 294
12/09/2019 1:10 13.7 73 0.0 0 0.0 0.6 2.2 276
12/09/2019 1:20 13.5 74 0.0 0 0.0 0.5 1.7 311
12/09/2019 1:30 13.6 74 0.0 0 0.0 1.0 3.5 317
12/09/2019 1:40 13.4 75 0.0 0 0.0 0.9 3.3 339
12/09/2019 1:50 13.2 75 0.0 0 0.0 0.9 3.2 326
12/09/2019 2:00 13.2 74 0.0 0 0.0 0.6 2.1 311
12/09/2019 2:10 13.3 74 0.0 0 0.0 0.7 2.4 279
12/09/2019 2:20 13.3 75 0.0 0 0.0 0.9 3.2 291
12/09/2019 2:30 13.2 76 0.0 0 0.0 0.5 1.7 6
12/09/2019 2:40 12.9 76 0.0 0 0.0 0.6 2.2 357
12/09/2019 2:50 12.8 77 0.0 0 0.0 0.0 0.0 0
12/09/2019 3:00 12.9 77 0.0 0 0.0 0.0 0.0 0
12/09/2019 3:10 12.7 77 0.0 0 0.0 0.1 0.3 225
12/09/2019 3:20 12.8 77 0.0 0 0.0 0.4 1.5 137
12/09/2019 3:30 12.7 77 0.0 0 0.0 0.5 1.8 138
12/09/2019 3:40 12.6 78 0.0 0 0.0 0.7 2.4 138
12/09/2019 3:50 12.6 78 0.0 0 0.0 1.4 4.9 141
12/09/2019 4:00 12.6 77 0.0 0 0.0 1.6 5.8 160
12/09/2019 4:10 12.7 77 0.0 0 0.0 0.5 1.8 173
12/09/2019 4:20 12.7 78 0.0 0 0.0 0.0 0.0 0
12/09/2019 4:30 12.3 80 0.0 0 0.0 0.0 0.0 0
12/09/2019 4:40 12.0 81 0.0 0 0.0 0.0 0.1 121
12/09/2019 4:50 12.1 80 0.0 0 0.0 0.0 0.1 121
12/09/2019 5:00 12.1 80 0.0 0 0.0 0.0 0.1 121
12/09/2019 5:10 12.1 80 0.0 0 0.0 0.4 1.6 121
12/09/2019 5:20 11.8 81 0.0 0 0.0 0.6 2.2 120
12/09/2019 5:30 11.9 80 0.0 0 0.0 0.7 2.5 72
12/09/2019 5:40 11.9 80 0.0 0 0.0 0.9 3.2 74
12/09/2019 5:50 12.0 81 0.0 0 0.0 0.5 1.8 58
12/09/2019 6:00 11.9 81 8.5 0 0.0 0.1 0.5 75
12/09/2019 6:10 12.2 81 31.6 338 0.0 0.5 1.7 102
12/09/2019 6:20 12.5 80 53.7 600 0.0 0.5 1.8 107
12/09/2019 6:30 13.0 78 79.6 600 0.0 0.6 2.3 97
12/09/2019 6:40 13.2 77 108.2 600 0.0 0.3 1.1 94
12/09/2019 6:50 13.7 76 137.8 600 0.0 0.2 0.9 110
12/09/2019 7:00 14.2 74 169.5 600 0.0 0.1 0.5 119
12/09/2019 7:10 14.5 73 201.1 600 0.0 0.2 0.5 60
12/09/2019 7:20 15.0 71 233.0 600 0.0 0.6 2.2 66
12/09/2019 7:30 14.9 72 266.6 600 0.0 0.6 2.1 98
12/09/2019 7:40 15.0 72 299.2 600 0.0 0.5 1.9 101
12/09/2019 7:50 15.3 71 330.4 600 0.0 0.3 0.9 75
12/09/2019 8:00 15.7 69 362.5 600 0.0 0.8 3.0 88
12/09/2019 8:10 15.9 68 390.6 600 0.0 0.8 2.9 89
12/09/2019 8:20 16.3 66 415.5 600 0.0 0.9 3.1 90
12/09/2019 8:30 16.9 64 450.3 600 0.0 0.6 2.2 108
12/09/2019 8:40 17.4 62 483.6 600 0.0 1.2 4.4 137
12/09/2019 8:50 17.8 61 512.9 600 0.0 0.9 3.4 152
12/09/2019 9:00 18.2 60 525.6 600 0.0 0.7 2.5 121
12/09/2019 9:10 18.6 59 564.1 600 0.0 0.8 2.8 144
12/09/2019 9:20 18.8 57 589.9 600 0.0 1.7 6.2 167
12/09/2019 9:30 19.0 57 615.1 600 0.0 1.4 5.0 160
12/09/2019 9:40 19.3 56 637.3 600 0.0 1.4 4.9 184
12/09/2019 9:50 19.8 54 659.5 600 0.0 0.8 2.7 238
12/09/2019 10:00 20.4 53 679.6 600 0.0 1.1 4.0 202
12/09/2019 10:10 20.6 52 699.9 600 0.0 0.8 3.0 243
12/09/2019 10:20 21.0 51 718.3 600 0.0 0.2 0.6 261
12/09/2019 10:30 21.5 49 735.7 600 0.0 0.6 2.1 274
12/09/2019 10:40 22.1 49 749.5 600 0.0 0.5 1.9 304
12/09/2019 10:50 22.4 47 762.7 600 0.0 0.8 2.8 264
12/09/2019 11:00 22.8 46 775.1 600 0.0 0.5 1.7 254
12/09/2019 11:10 23.5 45 784.7 600 0.0 0.2 0.6 196
12/09/2019 11:20 24.0 44 792.4 600 0.0 1.2 4.1 266
12/09/2019 11:30 24.1 43 801.0 600 0.0 0.9 3.1 255
12/09/2019 11:40 24.6 41 806.0 600 0.0 0.7 2.6 214
12/09/2019 11:50 25.0 41 811.0 600 0.0 1.4 5.1 291
12/09/2019 12:00 25.1 40 815.0 600 0.0 1.7 5.9 290
12/09/2019 12:10 25.4 38 817.0 600 0.0 1.1 3.9 285
12/09/2019 12:20 25.7 37 816.0 600 0.0 1.3 4.8 281
12/09/2019 12:30 25.9 36 815.0 600 0.0 1.3 4.8 285
12/09/2019 12:40 26.3 34 807.0 600 0.0 0.7 2.5 281
12/09/2019 12:50 26.6 34 803.0 600 0.0 1.4 4.9 275
12/09/2019 13:00 26.6 35 793.7 600 0.0 1.7 6.3 295
12/09/2019 13:10 27.0 35 784.3 600 0.0 1.7 6.0 274
12/09/2019 13:20 27.2 36 774.3 600 0.0 2.1 7.6 279
12/09/2019 13:30 27.1 37 761.2 600 0.0 2.0 7.2 295
12/09/2019 13:40 27.3 36 746.5 600 0.0 2.6 9.2 301
12/09/2019 13:50 27.2 38 727.5 600 0.0 1.9 6.7 325
12/09/2019 14:00 27.4 38 709.4 600 0.0 2.2 7.8 335
12/09/2019 14:10 27.1 39 690.3 600 0.0 2.1 7.6 352
12/09/2019 14:20 26.8 40 671.3 600 0.0 2.4 8.7 359
12/09/2019 14:30 26.4 40 652.2 600 0.0 3.4 12.1 6
12/09/2019 14:40 26.4 40 631.5 600 0.0 3.1 11.1 333
12/09/2019 14:50 26.5 40 608.4 600 0.0 2.8 9.9 319
12/09/2019 15:00 26.5 40 584.1 600 0.0 2.8 10.0 350
12/09/2019 15:10 26.5 41 556.5 600 0.0 1.9 6.9 353
12/09/2019 15:20 26.6 41 527.3 600 0.0 2.1 7.5 354
12/09/2019 15:30 26.0 42 500.4 600 0.0 3.1 11.1 14
12/09/2019 15:40 25.8 42 474.2 600 0.0 3.0 10.9 8
12/09/2019 15:50 25.6 42 443.7 600 0.0 2.6 9.2 6
12/09/2019 16:00 25.6 42 413.2 600 0.0 1.9 7.0 344
12/09/2019 16:10 25.4 42 382.3 600 0.0 2.5 9.1 337
12/09/2019 16:20 25.3 42 350.2 600 0.0 1.5 5.4 330
12/09/2019 16:30 25.5 42 317.3 600 0.0 3.3 11.8 324
12/09/2019 16:40 25.1 44 285.8 600 0.0 2.4 8.8 323
12/09/2019 16:50 24.9 43 252.9 600 0.0 2.4 8.6 327
12/09/2019 17:00 24.7 43 218.9 600 0.0 2.3 8.2 317
12/09/2019 17:10 24.4 44 185.8 600 0.0 2.5 9.1 316
12/09/2019 17:20 24.1 46 153.3 600 0.0 1.7 6.0 319
12/09/2019 17:30 23.9 47 122.1 600 0.0 1.9 6.9 342
12/09/2019 17:40 23.3 49 92.4 600 0.0 1.7 6.0 345
12/09/2019 17:50 23.0 50 64.7 588 0.0 2.3 8.3 342
12/09/2019 18:00 22.6 52 17.1 0 0.0 2.0 7.3 340
12/09/2019 18:10 22.2 53 9.6 0 0.0 1.8 6.3 348
12/09/2019 18:20 21.9 54 0.0 0 0.0 2.1 7.7 344
12/09/2019 18:30 21.6 55 0.0 0 0.0 1.4 5.1 13
12/09/2019 18:40 21.4 56 0.0 0 0.0 0.9 3.1 343
12/09/2019 18:50 20.9 58 0.0 0 0.0 0.9 3.2 338
12/09/2019 19:00 20.7 60 0.0 0 0.0 1.3 4.6 351
12/09/2019 19:10 20.4 61 0.0 0 0.0 1.0 3.7 358
12/09/2019 19:20 20.2 61 0.0 0 0.0 0.4 1.4 343
12/09/2019 19:30 20.0 63 0.0 0 0.0 0.8 2.7 295
12/09/2019 19:40 19.8 64 0.0 0 0.0 1.6 5.8 272
12/09/2019 19:50 19.6 65 0.0 0 0.0 1.9 6.7 269
12/09/2019 20:00 19.4 65 0.0 0 0.0 1.5 5.3 260
12/09/2019 20:10 19.3 66 0.0 0 0.0 1.2 4.2 276
12/09/2019 20:20 19.1 66 0.0 0 0.0 0.8 2.9 295
12/09/2019 20:30 18.9 67 0.0 0 0.0 1.0 3.5 318
12/09/2019 20:40 18.5 68 0.0 0 0.0 1.1 4.1 323
12/09/2019 20:50 18.3 69 0.0 0 0.0 1.0 3.6 321
12/09/2019 21:00 18.1 70 0.0 0 0.0 0.5 1.9 348
12/09/2019 21:10 17.8 71 0.0 0 0.0 0.4 1.3 19
12/09/2019 21:20 17.7 71 0.0 0 0.0 0.0 0.0 0
12/09/2019 21:30 17.5 72 0.0 0 0.0 0.0 0.0 26
12/09/2019 21:40 17.5 72 0.0 0 0.0 0.9 3.1 17
12/09/2019 21:50 17.4 72 0.0 0 0.0 0.4 1.4 11
12/09/2019 22:00 17.3 72 0.0 0 0.0 0.7 2.6 11
12/09/2019 22:10 17.0 73 0.0 0 0.0 0.3 1.0 7
12/09/2019 22:20 16.9 74 0.0 0 0.0 0.1 0.4 8
12/09/2019 22:30 16.8 74 0.0 0 0.0 0.0 0.0 0
12/09/2019 22:40 16.7 75 0.0 0 0.0 0.0 0.0 0
12/09/2019 22:50 16.6 75 0.0 0 0.0 0.0 0.0 0
12/09/2019 23:00 16.5 75 0.0 0 0.0 0.0 0.0 0
12/09/2019 23:10 16.5 74 0.0 0 0.0 0.0 0.0 0
12/09/2019 23:20 16.4 75 0.0 0 0.0 0.0 0.0 8
12/09/2019 23:30 16.3 75 0.0 0 0.0 0.3 1.0 83
12/09/2019 23:40 16.1 76 0.0 0 0.0 0.9 3.3 74
12/09/2019 23:50 15.9 76 0.0 0 0.0 0.6 2.1 67
Anterior Página 1 de 1 Siguiente

NOTA: Tipo de datos según el color:
   - Valores diarios o 10 minutos correctos
   - Valores diarios calculados a partir de un número de datos 10 minutos menor que 144 y mayor que 120, o de un número de datos semihorarios menor que 48 y mayor que 40 (caso de las estaciones de Riegos de Navarra y del MARM)
   - Valores diez minutos estimados


Contacto        Enlaces        Aviso legal